Hypoluxo, Florida
Current Conditions -  °F | °C
As of 3:53 AM on Sunday 23 Nov 2014 (Local Time) from KPBI Reporting Station
Broken Clouds Broken Clouds  
Wind Chill: 78°   Ceiling: 4000
Heat Index: 80°   Visibility: 10mi
Dew Point: 72°   Wind: 17mph
Humidity: 81%   Direction: 130°SE
Pressure: 30.01"   Gusts: NA
Location:  26.5758°N, 80.0835°W
Report Text: KPBI 230853Z 13015KT 10SM SCT021 BKN040 BKN060 26/22 A3001 RMK AO2 SLP162 60000 T02560222 58013
Loading
Personal Weather Stations






























Interactive Weather Map New forecast layout! Learn more

10-Day Weather Forecast

Advertisements
Track Severe Weather on mobile